PWSweather.com
Personal Weather Stations
Station Observations
MART18
Seleziona Stato..., MartinsicuroIT italia

Seleziona Stato...MartinsicuroIT italia

Lat: 42.885169, Lon: 13.918447300000025

Elevation: 3

Station Type: Davis vantage vp2

branciuno67@gmail.com

High Low Average
Temperature 80.4°F26.9°C 70.0°F21.1°C 75.1°F23.9°C
Dew Point 67.8°F19.9°C 63.0°F17.2°C 65.3°F18.5°C
Winds 13.0 mph 20.9 kmh 0.9 mph 1.4 kmh 4.0 mph WSW6.4 kmh WSW
Wind Gusts 21.0 mph33.8 kmh 2.0 mph3.2 kmh 9.0 mph14.5 kmh
Humidity 81% 61% 72%
Pressure 29.91 in1012.9 mb 29.84 in1010.5 mb -
Precipitation 0.26 in6.6 mm - -
Hour Temp Dew Point Humidity Winds Wind Gusts Pressure Precip Precip Rate Daily Precip Total
12:04 AM 72.9°F22.7°C 63.7°F17.6°C 73% 2.9 mph WNW4.7 kmh WNW 6.9 mph11.1 kmh 29.88 in1011.9 mb 0.00 in0.0 mm 0.00 in0.0 mm 0.00 in0.0 mm
12:09 AM 73.0°F22.8°C 63.5°F17.5°C 72% 2.0 mph NW3.2 kmh NW 4.0 mph6.4 kmh 29.87 in1011.5 mb 0.00 in0.0 mm 0.00 in0.0 mm 0.00 in0.0 mm
12:14 AM 73.0°F22.8°C 63.5°F17.5°C 72% 0.9 mph NW1.4 kmh NW 2.9 mph4.7 kmh 29.87 in1011.5 mb 0.00 in0.0 mm 0.00 in0.0 mm 0.00 in0.0 mm
12:19 AM 72.9°F22.7°C 63.3°F17.4°C 72% 2.0 mph W3.2 kmh W 8.9 mph14.3 kmh 29.87 in1011.5 mb 0.00 in0.0 mm 0.00 in0.0 mm 0.00 in0.0 mm
12:24 AM 72.7°F22.6°C 63.5°F17.5°C 73% 2.9 mph W4.7 kmh W 8.1 mph13.0 kmh 29.87 in1011.5 mb 0.00 in0.0 mm 0.00 in0.0 mm 0.00 in0.0 mm
12:29 AM 72.3°F22.4°C 63.1°F17.3°C 73% 2.9 mph WNW4.7 kmh WNW 10.1 mph16.3 kmh 29.88 in1011.9 mb 0.00 in0.0 mm 0.00 in0.0 mm 0.00 in0.0 mm
12:34 AM 72.3°F22.4°C 63.1°F17.3°C 73% 4.0 mph W6.4 kmh W 10.1 mph16.3 kmh 29.88 in1011.9 mb 0.00 in0.0 mm 0.00 in0.0 mm 0.00 in0.0 mm
12:39 AM 72.1°F22.3°C 63.3°F17.4°C 74% 4.9 mph W7.9 kmh W 8.9 mph14.3 kmh 29.88 in1011.9 mb 0.00 in0.0 mm 0.00 in0.0 mm 0.00 in0.0 mm
12:44 AM 72.1°F22.3°C 63.3°F17.4°C 74% 4.0 mph W6.4 kmh W 8.1 mph13.0 kmh 29.87 in1011.5 mb 0.00 in0.0 mm 0.00 in0.0 mm 0.00 in0.0 mm
12:49 AM 72.3°F22.4°C 63.5°F17.5°C 74% 4.0 mph NW6.4 kmh NW 10.1 mph16.3 kmh 29.88 in1011.9 mb 0.00 in0.0 mm 0.00 in0.0 mm 0.00 in0.0 mm
12:54 AM 72.3°F22.4°C 63.5°F17.5°C 74% 4.9 mph WNW7.9 kmh WNW 10.1 mph16.3 kmh 29.88 in1011.9 mb 0.00 in0.0 mm 0.00 in0.0 mm 0.00 in0.0 mm
12:59 AM 72.1°F22.3°C 63.3°F17.4°C 74% 4.9 mph NW7.9 kmh NW 11.0 mph17.7 kmh 29.87 in1011.5 mb 0.00 in0.0 mm 0.00 in0.0 mm 0.00 in0.0 mm
01:04 AM 72.5°F22.5°C 64.0°F17.8°C 75% 6.0 mph N9.7 kmh N 16.1 mph25.9 kmh 29.87 in1011.5 mb 0.00 in0.0 mm 0.00 in0.0 mm 0.00 in0.0 mm
01:09 AM 72.3°F22.4°C 63.9°F17.7°C 75% 4.0 mph NW6.4 kmh NW 4.9 mph7.9 kmh 29.87 in1011.5 mb 0.00 in0.0 mm 0.00 in0.0 mm 0.00 in0.0 mm
01:14 AM 72.1°F22.3°C 63.9°F17.7°C 75% 2.0 mph N3.2 kmh N 6.9 mph11.1 kmh 29.88 in1011.9 mb 0.00 in0.0 mm 0.00 in0.0 mm 0.00 in0.0 mm
01:19 AM 72.1°F22.3°C 64.2°F17.9°C 76% 2.0 mph WNW3.2 kmh WNW 6.9 mph11.1 kmh 29.87 in1011.5 mb 0.00 in0.0 mm 0.00 in0.0 mm 0.00 in0.0 mm
01:24 AM 72.0°F22.2°C 64.0°F17.8°C 76% 2.0 mph NW3.2 kmh NW 6.0 mph9.7 kmh 29.87 in1011.5 mb 0.00 in0.0 mm 0.00 in0.0 mm 0.00 in0.0 mm
01:29 AM 71.8°F22.1°C 64.2°F17.9°C 77% 2.0 mph N3.2 kmh N 4.0 mph6.4 kmh 29.87 in1011.5 mb 0.00 in0.0 mm 0.00 in0.0 mm 0.00 in0.0 mm
01:34 AM 71.6°F22.0°C 64.0°F17.8°C 77% 2.0 mph 3.2 kmh 4.9 mph7.9 kmh 29.88 in1011.9 mb 0.00 in0.0 mm 0.00 in0.0 mm 0.00 in0.0 mm
01:39 AM 71.4°F21.9°C 64.2°F17.9°C 78% 2.0 mph N3.2 kmh N 2.9 mph4.7 kmh 29.87 in1011.5 mb 0.00 in0.0 mm 0.00 in0.0 mm 0.00 in0.0 mm
01:44 AM 71.4°F21.9°C 64.2°F17.9°C 78% 0.9 mph N1.4 kmh N 4.0 mph6.4 kmh 29.88 in1011.9 mb 0.00 in0.0 mm 0.00 in0.0 mm 0.00 in0.0 mm
01:49 AM 71.2°F21.8°C 64.4°F18.0°C 79% 0.9 mph NNW1.4 kmh NNW 2.9 mph4.7 kmh 29.88 in1011.9 mb 0.00 in0.0 mm 0.00 in0.0 mm 0.00 in0.0 mm
01:54 AM 71.2°F21.8°C 64.4°F18.0°C 79% 0.9 mph NNW1.4 kmh NNW 2.0 mph3.2 kmh 29.87 in1011.5 mb 0.00 in0.0 mm 0.00 in0.0 mm 0.00 in0.0 mm
01:59 AM 71.2°F21.8°C 64.8°F18.2°C 80% 0.9 mph NNW1.4 kmh NNW 2.9 mph4.7 kmh 29.87 in1011.5 mb 0.00 in0.0 mm 0.00 in0.0 mm 0.00 in0.0 mm
02:04 AM 71.2°F21.8°C 64.8°F18.2°C 80% 0.9 mph WNW1.4 kmh WNW 4.0 mph6.4 kmh 29.87 in1011.5 mb 0.00 in0.0 mm 0.00 in0.0 mm 0.00 in0.0 mm
02:09 AM 71.1°F21.7°C 64.6°F18.1°C 80% 2.0 mph WNW3.2 kmh WNW 2.9 mph4.7 kmh 29.86 in1011.2 mb 0.00 in0.0 mm 0.00 in0.0 mm 0.00 in0.0 mm
02:14 AM 71.1°F21.7°C 64.6°F18.1°C 80% 0.9 mph W1.4 kmh W 6.0 mph9.7 kmh 29.86 in1011.2 mb 0.00 in0.0 mm 0.00 in0.0 mm 0.00 in0.0 mm
02:19 AM 70.9°F21.6°C 64.8°F18.2°C 81% 2.0 mph WSW3.2 kmh WSW 4.9 mph7.9 kmh 29.86 in1011.2 mb 0.00 in0.0 mm 0.00 in0.0 mm 0.00 in0.0 mm
02:24 AM 70.9°F21.6°C 64.8°F18.2°C 81% 2.0 mph WNW3.2 kmh WNW 8.1 mph13.0 kmh 29.86 in1011.2 mb 0.00 in0.0 mm 0.00 in0.0 mm 0.00 in0.0 mm
02:29 AM 70.9°F21.6°C 64.4°F18.0°C 80% 2.9 mph W4.7 kmh W 6.9 mph11.1 kmh 29.86 in1011.2 mb 0.00 in0.0 mm 0.00 in0.0 mm 0.00 in0.0 mm
02:34 AM 70.9°F21.6°C 64.4°F18.0°C 80% 2.9 mph WNW4.7 kmh WNW 6.9 mph11.1 kmh 29.86 in1011.2 mb 0.00 in0.0 mm 0.00 in0.0 mm 0.00 in0.0 mm
02:39 AM 71.1°F21.7°C 64.2°F17.9°C 79% 4.0 mph WNW6.4 kmh WNW 10.1 mph16.3 kmh 29.86 in1011.2 mb 0.00 in0.0 mm 0.00 in0.0 mm 0.00 in0.0 mm
02:44 AM 71.2°F21.8°C 64.0°F17.8°C 78% 4.9 mph W7.9 kmh W 8.1 mph13.0 kmh 29.85 in1010.8 mb 0.00 in0.0 mm 0.00 in0.0 mm 0.00 in0.0 mm
02:49 AM 71.2°F21.8°C 64.0°F17.8°C 78% 4.9 mph W7.9 kmh W 8.9 mph14.3 kmh 29.85 in1010.8 mb 0.00 in0.0 mm 0.00 in0.0 mm 0.00 in0.0 mm
02:54 AM 71.4°F21.9°C 63.9°F17.7°C 77% 4.9 mph W7.9 kmh W 8.9 mph14.3 kmh 29.86 in1011.2 mb 0.00 in0.0 mm 0.00 in0.0 mm 0.00 in0.0 mm
02:59 AM 71.4°F21.9°C 63.9°F17.7°C 77% 4.0 mph NW6.4 kmh NW 8.9 mph14.3 kmh 29.86 in1011.2 mb 0.00 in0.0 mm 0.00 in0.0 mm 0.00 in0.0 mm
03:04 AM 71.4°F21.9°C 63.9°F17.7°C 77% 2.9 mph N4.7 kmh N 8.1 mph13.0 kmh 29.85 in1010.8 mb 0.00 in0.0 mm 0.00 in0.0 mm 0.00 in0.0 mm
03:09 AM 70.9°F21.6°C 63.7°F17.6°C 78% 4.0 mph NW6.4 kmh NW 9.0 mph14.5 kmh 29.85 in1010.8 mb 0.00 in0.0 mm 0.00 in0.0 mm 0.00 in0.0 mm
03:14 AM 70.5°F21.4°C 63.7°F17.6°C 79% 4.9 mph WNW7.9 kmh WNW 8.1 mph13.0 kmh 29.85 in1010.8 mb 0.00 in0.0 mm 0.00 in0.0 mm 0.00 in0.0 mm
03:19 AM 70.2°F21.2°C 63.7°F17.6°C 80% 4.0 mph W6.4 kmh W 6.9 mph11.1 kmh 29.85 in1010.8 mb 0.00 in0.0 mm 0.00 in0.0 mm 0.00 in0.0 mm
03:24 AM 70.0°F21.1°C 63.1°F17.3°C 79% 4.0 mph W6.4 kmh W 10.1 mph16.3 kmh 29.85 in1010.8 mb 0.00 in0.0 mm 0.00 in0.0 mm 0.00 in0.0 mm
03:29 AM 70.3°F21.3°C 63.5°F17.5°C 79% 4.0 mph W6.4 kmh W 10.1 mph16.3 kmh 29.85 in1010.8 mb 0.00 in0.0 mm 0.00 in0.0 mm 0.00 in0.0 mm
03:34 AM 70.5°F21.4°C 63.3°F17.4°C 78% 2.9 mph NW4.7 kmh NW 6.0 mph9.7 kmh 29.85 in1010.8 mb 0.00 in0.0 mm 0.00 in0.0 mm 0.00 in0.0 mm
03:39 AM 70.9°F21.6°C 63.7°F17.6°C 78% 2.0 mph WNW3.2 kmh WNW 9.0 mph14.5 kmh 29.85 in1010.8 mb 0.00 in0.0 mm 0.00 in0.0 mm 0.00 in0.0 mm
03:44 AM 70.9°F21.6°C 63.3°F17.4°C 77% 2.9 mph NW4.7 kmh NW 8.1 mph13.0 kmh 29.85 in1010.8 mb 0.00 in0.0 mm 0.00 in0.0 mm 0.00 in0.0 mm
03:49 AM 70.9°F21.6°C 63.3°F17.4°C 77% 2.9 mph W4.7 kmh W 6.9 mph11.1 kmh 29.84 in1010.5 mb 0.00 in0.0 mm 0.00 in0.0 mm 0.00 in0.0 mm
03:54 AM 70.9°F21.6°C 63.3°F17.4°C 77% 2.9 mph NW4.7 kmh NW 8.1 mph13.0 kmh 29.85 in1010.8 mb 0.00 in0.0 mm 0.00 in0.0 mm 0.00 in0.0 mm
03:59 AM 70.9°F21.6°C 63.3°F17.4°C 77% 2.9 mph NNE4.7 kmh NNE 6.9 mph11.1 kmh 29.85 in1010.8 mb 0.00 in0.0 mm 0.00 in0.0 mm 0.00 in0.0 mm
04:04 AM 71.1°F21.7°C 63.5°F17.5°C 77% 2.9 mph NW4.7 kmh NW 8.1 mph13.0 kmh 29.85 in1010.8 mb 0.00 in0.0 mm 0.00 in0.0 mm 0.00 in0.0 mm
04:09 AM 70.9°F21.6°C 63.3°F17.4°C 77% 4.0 mph W6.4 kmh W 10.1 mph16.3 kmh 29.85 in1010.8 mb 0.00 in0.0 mm 0.00 in0.0 mm 0.00 in0.0 mm
04:14 AM 71.1°F21.7°C 63.5°F17.5°C 77% 4.9 mph W7.9 kmh W 8.9 mph14.3 kmh 29.84 in1010.5 mb 0.00 in0.0 mm 0.00 in0.0 mm 0.00 in0.0 mm
04:19 AM 71.1°F21.7°C 63.1°F17.3°C 76% 6.0 mph WNW9.7 kmh WNW 11.0 mph17.7 kmh 29.84 in1010.5 mb 0.00 in0.0 mm 0.00 in0.0 mm 0.00 in0.0 mm
04:24 AM 71.2°F21.8°C 63.3°F17.4°C 76% 6.0 mph WNW9.7 kmh WNW 10.1 mph16.3 kmh 29.84 in1010.5 mb 0.00 in0.0 mm 0.00 in0.0 mm 0.00 in0.0 mm
04:29 AM 71.2°F21.8°C 63.3°F17.4°C 76% 4.9 mph WNW7.9 kmh WNW 10.1 mph16.3 kmh 29.84 in1010.5 mb 0.00 in0.0 mm 0.00 in0.0 mm 0.00 in0.0 mm
04:34 AM 71.2°F21.8°C 63.3°F17.4°C 76% 4.9 mph NW7.9 kmh NW 8.9 mph14.3 kmh 29.84 in1010.5 mb 0.00 in0.0 mm 0.00 in0.0 mm 0.00 in0.0 mm
04:39 AM 71.2°F21.8°C 63.3°F17.4°C 76% 4.0 mph NW6.4 kmh NW 8.9 mph14.3 kmh 29.84 in1010.5 mb 0.00 in0.0 mm 0.00 in0.0 mm 0.00 in0.0 mm
04:44 AM 71.2°F21.8°C 63.3°F17.4°C 76% 2.9 mph NW4.7 kmh NW 8.9 mph14.3 kmh 29.84 in1010.5 mb 0.00 in0.0 mm 0.00 in0.0 mm 0.00 in0.0 mm
04:49 AM 71.2°F21.8°C 63.3°F17.4°C 76% 4.0 mph WNW6.4 kmh WNW 8.9 mph14.3 kmh 29.84 in1010.5 mb 0.00 in0.0 mm 0.00 in0.0 mm 0.00 in0.0 mm
04:54 AM 71.1°F21.7°C 63.1°F17.3°C 76% 4.0 mph WNW6.4 kmh WNW 10.1 mph16.3 kmh 29.84 in1010.5 mb 0.00 in0.0 mm 0.00 in0.0 mm 0.00 in0.0 mm
04:59 AM 70.9°F21.6°C 63.0°F17.2°C 76% 4.9 mph W7.9 kmh W 10.1 mph16.3 kmh 29.84 in1010.5 mb 0.00 in0.0 mm 0.00 in0.0 mm 0.00 in0.0 mm
05:04 AM 70.9°F21.6°C 63.0°F17.2°C 76% 4.9 mph NW7.9 kmh NW 8.1 mph13.0 kmh 29.84 in1010.5 mb 0.00 in0.0 mm 0.00 in0.0 mm 0.00 in0.0 mm
05:09 AM 70.9°F21.6°C 63.0°F17.2°C 76% 2.9 mph NW4.7 kmh NW 9.0 mph14.5 kmh 29.84 in1010.5 mb 0.00 in0.0 mm 0.00 in0.0 mm 0.00 in0.0 mm
05:14 AM 71.1°F21.7°C 63.1°F17.3°C 76% 4.0 mph WNW6.4 kmh WNW 8.1 mph13.0 kmh 29.84 in1010.5 mb 0.00 in0.0 mm 0.00 in0.0 mm 0.00 in0.0 mm
05:19 AM 71.2°F21.8°C 63.3°F17.4°C 76% 2.9 mph NW4.7 kmh NW 6.0 mph9.7 kmh 29.85 in1010.8 mb 0.00 in0.0 mm 0.00 in0.0 mm 0.00 in0.0 mm
05:24 AM 71.2°F21.8°C 63.3°F17.4°C 76% 2.0 mph NW3.2 kmh NW 6.0 mph9.7 kmh 29.85 in1010.8 mb 0.00 in0.0 mm 0.00 in0.0 mm 0.00 in0.0 mm
05:29 AM 71.4°F21.9°C 63.5°F17.5°C 76% 2.0 mph NW3.2 kmh NW 6.9 mph11.1 kmh 29.85 in1010.8 mb 0.00 in0.0 mm 0.00 in0.0 mm 0.00 in0.0 mm
05:34 AM 71.4°F21.9°C 63.5°F17.5°C 76% 2.0 mph NW3.2 kmh NW 4.0 mph6.4 kmh 29.85 in1010.8 mb 0.00 in0.0 mm 0.00 in0.0 mm 0.00 in0.0 mm
05:39 AM 71.6°F22.0°C 63.7°F17.6°C 76% 0.9 mph WNW1.4 kmh WNW 4.0 mph6.4 kmh 29.85 in1010.8 mb 0.00 in0.0 mm 0.00 in0.0 mm 0.00 in0.0 mm
05:44 AM 71.6°F22.0°C 63.7°F17.6°C 76% 2.0 mph N3.2 kmh N 4.0 mph6.4 kmh 29.85 in1010.8 mb 0.00 in0.0 mm 0.00 in0.0 mm 0.00 in0.0 mm
05:49 AM 71.6°F22.0°C 63.7°F17.6°C 76% 2.0 mph N3.2 kmh N 4.9 mph7.9 kmh 29.85 in1010.8 mb 0.00 in0.0 mm 0.00 in0.0 mm 0.00 in0.0 mm
05:54 AM 71.6°F22.0°C 63.7°F17.6°C 76% 2.9 mph NNW4.7 kmh NNW 4.9 mph7.9 kmh 29.85 in1010.8 mb 0.00 in0.0 mm 0.00 in0.0 mm 0.00 in0.0 mm
05:59 AM 71.6°F22.0°C 63.7°F17.6°C 76% 2.9 mph NW4.7 kmh NW 4.9 mph7.9 kmh 29.85 in1010.8 mb 0.00 in0.0 mm 0.00 in0.0 mm 0.00 in0.0 mm
06:04 AM 71.8°F22.1°C 63.9°F17.7°C 76% 2.9 mph WNW4.7 kmh WNW 6.0 mph9.7 kmh 29.85 in1010.8 mb 0.00 in0.0 mm 0.00 in0.0 mm 0.00 in0.0 mm
06:09 AM 72.0°F22.2°C 64.0°F17.8°C 76% 2.9 mph NW4.7 kmh NW 8.1 mph13.0 kmh 29.85 in1010.8 mb 0.00 in0.0 mm 0.00 in0.0 mm 0.00 in0.0 mm
06:14 AM 72.1°F22.3°C 64.2°F17.9°C 76% 2.9 mph WNW4.7 kmh WNW 10.1 mph16.3 kmh 29.85 in1010.8 mb 0.00 in0.0 mm 0.00 in0.0 mm 0.00 in0.0 mm
06:19 AM 72.3°F22.4°C 63.9°F17.7°C 75% 4.0 mph NW6.4 kmh NW 8.9 mph14.3 kmh 29.85 in1010.8 mb 0.00 in0.0 mm 0.00 in0.0 mm 0.00 in0.0 mm
06:24 AM 72.7°F22.6°C 64.2°F17.9°C 75% 4.0 mph NNW6.4 kmh NNW 8.9 mph14.3 kmh 29.85 in1010.8 mb 0.00 in0.0 mm 0.00 in0.0 mm 0.00 in0.0 mm
06:29 AM 72.9°F22.7°C 64.4°F18.0°C 75% 2.9 mph WNW4.7 kmh WNW 6.9 mph11.1 kmh 29.86 in1011.2 mb 0.00 in0.0 mm 0.00 in0.0 mm 0.00 in0.0 mm
06:34 AM 72.9°F22.7°C 64.4°F18.0°C 75% 2.9 mph W4.7 kmh W 6.9 mph11.1 kmh 29.86 in1011.2 mb 0.00 in0.0 mm 0.00 in0.0 mm 0.00 in0.0 mm
06:39 AM 73.0°F22.8°C 64.2°F17.9°C 74% 4.0 mph NW6.4 kmh NW 9.0 mph14.5 kmh 29.86 in1011.2 mb 0.00 in0.0 mm 0.00 in0.0 mm 0.00 in0.0 mm
06:44 AM 73.2°F22.9°C 64.4°F18.0°C 74% 4.9 mph W7.9 kmh W 10.1 mph16.3 kmh 29.86 in1011.2 mb 0.00 in0.0 mm 0.00 in0.0 mm 0.00 in0.0 mm
06:49 AM 73.4°F23.0°C 64.6°F18.1°C 74% 4.9 mph WNW7.9 kmh WNW 8.9 mph14.3 kmh 29.87 in1011.5 mb 0.00 in0.0 mm 0.00 in0.0 mm 0.00 in0.0 mm
06:54 AM 73.6°F23.1°C 64.8°F18.2°C 74% 4.9 mph W7.9 kmh W 10.1 mph16.3 kmh 29.87 in1011.5 mb 0.00 in0.0 mm 0.00 in0.0 mm 0.00 in0.0 mm
06:59 AM 73.6°F23.1°C 64.8°F18.2°C 74% 6.0 mph WNW9.7 kmh WNW 11.0 mph17.7 kmh 29.87 in1011.5 mb 0.00 in0.0 mm 0.00 in0.0 mm 0.00 in0.0 mm
07:04 AM 73.8°F23.2°C 64.9°F18.3°C 74% 4.9 mph W7.9 kmh W 12.1 mph19.5 kmh 29.87 in1011.5 mb 0.00 in0.0 mm 0.00 in0.0 mm 0.00 in0.0 mm
07:09 AM 73.8°F23.2°C 64.9°F18.3°C 74% 6.0 mph NW9.7 kmh NW 8.9 mph14.3 kmh 29.87 in1011.5 mb 0.00 in0.0 mm 0.00 in0.0 mm 0.00 in0.0 mm
07:14 AM 73.9°F23.3°C 64.8°F18.2°C 73% 4.9 mph W7.9 kmh W 11.0 mph17.7 kmh 29.87 in1011.5 mb 0.00 in0.0 mm 0.00 in0.0 mm 0.00 in0.0 mm
07:19 AM 73.9°F23.3°C 65.1°F18.4°C 74% 4.0 mph WNW6.4 kmh WNW 8.9 mph14.3 kmh 29.87 in1011.5 mb 0.00 in0.0 mm 0.00 in0.0 mm 0.00 in0.0 mm
07:24 AM 73.9°F23.3°C 64.8°F18.2°C 73% 4.0 mph WNW6.4 kmh WNW 11.0 mph17.7 kmh 29.87 in1011.5 mb 0.00 in0.0 mm 0.00 in0.0 mm 0.00 in0.0 mm
07:29 AM 73.9°F23.3°C 64.8°F18.2°C 73% 6.0 mph NW9.7 kmh NW 12.1 mph19.5 kmh 29.87 in1011.5 mb 0.00 in0.0 mm 0.00 in0.0 mm 0.00 in0.0 mm
07:34 AM 74.3°F23.5°C 65.1°F18.4°C 73% 6.0 mph WNW9.7 kmh WNW 8.9 mph14.3 kmh 29.87 in1011.5 mb 0.00 in0.0 mm 0.00 in0.0 mm 0.00 in0.0 mm
07:39 AM 74.7°F23.7°C 65.5°F18.6°C 73% 4.9 mph NW7.9 kmh NW 10.1 mph16.3 kmh 29.87 in1011.5 mb 0.00 in0.0 mm 0.00 in0.0 mm 0.00 in0.0 mm
07:44 AM 74.8°F23.8°C 65.7°F18.7°C 73% 4.0 mph NW6.4 kmh NW 8.9 mph14.3 kmh 29.87 in1011.5 mb 0.00 in0.0 mm 0.00 in0.0 mm 0.00 in0.0 mm
07:49 AM 75.0°F23.9°C 65.3°F18.5°C 72% 4.0 mph NNW6.4 kmh NNW 10.1 mph16.3 kmh 29.87 in1011.5 mb 0.00 in0.0 mm 0.00 in0.0 mm 0.00 in0.0 mm
07:54 AM 75.2°F24.0°C 65.5°F18.6°C 72% 4.0 mph NW6.4 kmh NW 8.1 mph13.0 kmh 29.87 in1011.5 mb 0.00 in0.0 mm 0.00 in0.0 mm 0.00 in0.0 mm
07:59 AM 75.0°F23.9°C 65.3°F18.5°C 72% 4.9 mph W7.9 kmh W 10.1 mph16.3 kmh 29.87 in1011.5 mb 0.00 in0.0 mm 0.00 in0.0 mm 0.00 in0.0 mm
08:04 AM 74.8°F23.8°C 65.1°F18.4°C 72% 6.0 mph NW9.7 kmh NW 12.1 mph19.5 kmh 29.88 in1011.9 mb 0.00 in0.0 mm 0.00 in0.0 mm 0.00 in0.0 mm
08:09 AM 75.0°F23.9°C 65.3°F18.5°C 72% 6.9 mph W11.1 kmh W 11.0 mph17.7 kmh 29.88 in1011.9 mb 0.00 in0.0 mm 0.00 in0.0 mm 0.00 in0.0 mm
08:14 AM 75.4°F24.1°C 65.7°F18.7°C 72% 6.0 mph 9.7 kmh 10.1 mph16.3 kmh 29.88 in1011.9 mb 0.00 in0.0 mm 0.00 in0.0 mm 0.00 in0.0 mm
08:19 AM 75.7°F24.3°C 66.0°F18.9°C 72% 4.9 mph W7.9 kmh W 6.9 mph11.1 kmh 29.88 in1011.9 mb 0.00 in0.0 mm 0.00 in0.0 mm 0.00 in0.0 mm
08:24 AM 75.7°F24.3°C 66.0°F18.9°C 72% 4.0 mph WNW6.4 kmh WNW 10.1 mph16.3 kmh 29.88 in1011.9 mb 0.00 in0.0 mm 0.00 in0.0 mm 0.00 in0.0 mm
08:29 AM 75.7°F24.3°C 65.7°F18.7°C 71% 4.0 mph WSW6.4 kmh WSW 14.1 mph22.7 kmh 29.88 in1011.9 mb 0.00 in0.0 mm 0.00 in0.0 mm 0.00 in0.0 mm
08:34 AM 76.1°F24.5°C 66.4°F19.1°C 72% 4.0 mph WSW6.4 kmh WSW 10.1 mph16.3 kmh 29.88 in1011.9 mb 0.00 in0.0 mm 0.00 in0.0 mm 0.00 in0.0 mm
08:39 AM 76.3°F24.6°C 66.2°F19.0°C 71% 4.0 mph N6.4 kmh N 8.9 mph14.3 kmh 29.89 in1012.2 mb 0.00 in0.0 mm 0.00 in0.0 mm 0.00 in0.0 mm
08:44 AM 76.5°F24.7°C 66.4°F19.1°C 71% 4.0 mph N6.4 kmh N 8.1 mph13.0 kmh 29.89 in1012.2 mb 0.00 in0.0 mm 0.00 in0.0 mm 0.00 in0.0 mm
08:49 AM 76.3°F24.6°C 66.2°F19.0°C 71% 4.0 mph NNE6.4 kmh NNE 8.1 mph13.0 kmh 29.89 in1012.2 mb 0.00 in0.0 mm 0.00 in0.0 mm 0.00 in0.0 mm
08:54 AM 76.5°F24.7°C 66.4°F19.1°C 71% 4.0 mph NW6.4 kmh NW 6.9 mph11.1 kmh 29.89 in1012.2 mb 0.00 in0.0 mm 0.00 in0.0 mm 0.00 in0.0 mm
08:59 AM 76.6°F24.8°C 66.6°F19.2°C 71% 4.0 mph N6.4 kmh N 10.1 mph16.3 kmh 29.89 in1012.2 mb 0.00 in0.0 mm 0.00 in0.0 mm 0.00 in0.0 mm
09:04 AM 76.8°F24.9°C 66.2°F19.0°C 70% 4.9 mph NNE7.9 kmh NNE 12.1 mph19.5 kmh 29.89 in1012.2 mb 0.00 in0.0 mm 0.00 in0.0 mm 0.00 in0.0 mm
09:09 AM 76.6°F24.8°C 66.2°F19.0°C 70% 4.9 mph NW7.9 kmh NW 8.1 mph13.0 kmh 29.89 in1012.2 mb 0.00 in0.0 mm 0.00 in0.0 mm 0.00 in0.0 mm
09:14 AM 76.8°F24.9°C 66.2°F19.0°C 70% 4.0 mph NW6.4 kmh NW 8.9 mph14.3 kmh 29.89 in1012.2 mb 0.00 in0.0 mm 0.00 in0.0 mm 0.00 in0.0 mm
09:19 AM 76.8°F24.9°C 66.7°F19.3°C 71% 2.9 mph N4.7 kmh N 6.0 mph9.7 kmh 29.89 in1012.2 mb 0.00 in0.0 mm 0.00 in0.0 mm 0.00 in0.0 mm
09:24 AM 77.2°F25.1°C 67.1°F19.5°C 71% 2.9 mph N4.7 kmh N 6.0 mph9.7 kmh 29.89 in1012.2 mb 0.00 in0.0 mm 0.00 in0.0 mm 0.00 in0.0 mm
09:29 AM 77.4°F25.2°C 66.7°F19.3°C 70% 4.0 mph NNE6.4 kmh NNE 8.1 mph13.0 kmh 29.89 in1012.2 mb 0.00 in0.0 mm 0.00 in0.0 mm 0.00 in0.0 mm
09:34 AM 77.5°F25.3°C 66.9°F19.4°C 70% 4.9 mph N7.9 kmh N 12.1 mph19.5 kmh 29.89 in1012.2 mb 0.00 in0.0 mm 0.00 in0.0 mm 0.00 in0.0 mm
09:39 AM 77.5°F25.3°C 66.9°F19.4°C 70% 4.9 mph 7.9 kmh 8.1 mph13.0 kmh 29.88 in1011.9 mb 0.00 in0.0 mm 0.00 in0.0 mm 0.00 in0.0 mm
09:44 AM 77.7°F25.4°C 67.1°F19.5°C 70% 4.9 mph N7.9 kmh N 13.0 mph20.9 kmh 29.88 in1011.9 mb 0.00 in0.0 mm 0.00 in0.0 mm 0.00 in0.0 mm
09:49 AM 77.7°F25.4°C 67.1°F19.5°C 70% 4.9 mph NE7.9 kmh NE 11.0 mph17.7 kmh 29.88 in1011.9 mb 0.00 in0.0 mm 0.00 in0.0 mm 0.00 in0.0 mm
09:54 AM 78.1°F25.6°C 67.5°F19.7°C 70% 6.0 mph NE9.7 kmh NE 11.0 mph17.7 kmh 29.88 in1011.9 mb 0.00 in0.0 mm 0.00 in0.0 mm 0.00 in0.0 mm
09:59 AM 78.3°F25.7°C 67.3°F19.6°C 69% 6.0 mph NE9.7 kmh NE 11.0 mph17.7 kmh 29.88 in1011.9 mb 0.00 in0.0 mm 0.00 in0.0 mm 0.00 in0.0 mm
10:04 AM 78.3°F25.7°C 66.7°F19.3°C 68% 6.0 mph NW9.7 kmh NW 11.0 mph17.7 kmh 29.88 in1011.9 mb 0.00 in0.0 mm 0.00 in0.0 mm 0.00 in0.0 mm
10:09 AM 78.6°F25.9°C 67.1°F19.5°C 68% 6.0 mph N9.7 kmh N 11.0 mph17.7 kmh 29.88 in1011.9 mb 0.00 in0.0 mm 0.00 in0.0 mm 0.00 in0.0 mm
10:14 AM 78.8°F26.0°C 67.3°F19.6°C 68% 6.0 mph N9.7 kmh N 12.1 mph19.5 kmh 29.88 in1011.9 mb 0.00 in0.0 mm 0.00 in0.0 mm 0.00 in0.0 mm
10:19 AM 79.0°F26.1°C 67.1°F19.5°C 67% 6.0 mph NNE9.7 kmh NNE 11.0 mph17.7 kmh 29.89 in1012.2 mb 0.00 in0.0 mm 0.00 in0.0 mm 0.00 in0.0 mm
10:24 AM 78.4°F25.8°C 66.6°F19.2°C 67% 6.9 mph NE11.1 kmh NE 11.0 mph17.7 kmh 29.89 in1012.2 mb 0.00 in0.0 mm 0.00 in0.0 mm 0.00 in0.0 mm
10:29 AM 78.4°F25.8°C 67.5°F19.7°C 69% 6.9 mph 11.1 kmh 11.0 mph17.7 kmh 29.90 in1012.5 mb 0.00 in0.0 mm 0.00 in0.0 mm 0.00 in0.0 mm
10:34 AM 78.3°F25.7°C 67.6°F19.8°C 70% 6.9 mph N11.1 kmh N 14.1 mph22.7 kmh 29.89 in1012.2 mb 0.00 in0.0 mm 0.00 in0.0 mm 0.00 in0.0 mm
10:39 AM 78.1°F25.6°C 67.8°F19.9°C 71% 8.1 mph NE13.0 kmh NE 14.1 mph22.7 kmh 29.89 in1012.2 mb 0.00 in0.0 mm 0.00 in0.0 mm 0.00 in0.0 mm
10:44 AM 77.9°F25.5°C 67.3°F19.6°C 70% 8.1 mph 13.0 kmh 13.0 mph20.9 kmh 29.89 in1012.2 mb 0.00 in0.0 mm 0.00 in0.0 mm 0.00 in0.0 mm
10:49 AM 77.7°F25.4°C 66.7°F19.3°C 69% 8.9 mph NNE14.3 kmh NNE 16.0 mph25.7 kmh 29.89 in1012.2 mb 0.00 in0.0 mm 0.00 in0.0 mm 0.00 in0.0 mm
10:54 AM 76.5°F24.7°C 65.1°F18.4°C 68% 11.0 mph NE17.7 kmh NE 21.0 mph33.8 kmh 29.90 in1012.5 mb 0.00 in0.0 mm 0.00 in0.0 mm 0.00 in0.0 mm
10:59 AM 73.8°F23.2°C 64.9°F18.3°C 74% 13.0 mph N20.9 kmh N 21.0 mph33.8 kmh 29.91 in1012.9 mb 0.00 in0.0 mm 0.00 in0.0 mm 0.00 in0.0 mm
11:04 AM 72.9°F22.7°C 65.3°F18.5°C 77% 13.0 mph NE20.9 kmh NE 19.9 mph32.0 kmh 29.91 in1012.9 mb 0.01 in0.3 mm 0.01 in0.3 mm 0.01 in0.3 mm
11:09 AM 71.6°F22.0°C 64.8°F18.2°C 79% 12.1 mph NNE19.5 kmh NNE 21.0 mph33.8 kmh 29.91 in1012.9 mb 0.04 in1.0 mm 0.36 in9.1 mm 0.04 in1.0 mm
11:14 AM 71.2°F21.8°C 64.8°F18.2°C 80% 12.1 mph NE19.5 kmh NE 17.9 mph28.8 kmh 29.91 in1012.9 mb 0.06 in1.5 mm 0.24 in6.1 mm 0.06 in1.5 mm
11:19 AM 71.6°F22.0°C 65.5°F18.6°C 81% 11.0 mph NE17.7 kmh NE 17.9 mph28.8 kmh 29.91 in1012.9 mb 0.07 in1.8 mm 0.12 in3.0 mm 0.08 in2.0 mm
11:24 AM 71.8°F22.1°C 65.7°F18.7°C 81% 10.1 mph NE16.3 kmh NE 17.0 mph27.4 kmh 29.91 in1012.9 mb 0.08 in2.0 mm 0.12 in3.0 mm 0.08 in2.0 mm
11:29 AM 71.6°F22.0°C 65.1°F18.4°C 80% 8.1 mph NE13.0 kmh NE 14.1 mph22.7 kmh 29.91 in1012.9 mb 0.09 in2.3 mm 0.12 in3.0 mm 0.10 in2.5 mm
11:34 AM 71.8°F22.1°C 64.9°F18.3°C 79% 6.9 mph NE11.1 kmh NE 14.1 mph22.7 kmh 29.91 in1012.9 mb 0.10 in2.5 mm 0.12 in3.0 mm 0.10 in2.5 mm
11:39 AM 72.1°F22.3°C 65.3°F18.5°C 79% 6.9 mph NE11.1 kmh NE 12.1 mph19.5 kmh 29.91 in1012.9 mb 0.12 in3.0 mm 0.24 in6.1 mm 0.12 in3.0 mm
11:44 AM 72.9°F22.7°C 66.4°F19.1°C 80% 6.0 mph NE9.7 kmh NE 11.0 mph17.7 kmh 29.91 in1012.9 mb 0.13 in3.3 mm 0.12 in3.0 mm 0.13 in3.3 mm
11:49 AM 73.2°F22.9°C 66.7°F19.3°C 80% 6.0 mph NE9.7 kmh NE 11.0 mph17.7 kmh 29.91 in1012.9 mb 0.14 in3.6 mm 0.12 in3.0 mm 0.14 in3.6 mm
11:54 AM 73.0°F22.8°C 66.6°F19.2°C 80% 6.9 mph NE11.1 kmh NE 10.1 mph16.3 kmh 29.91 in1012.9 mb 0.16 in4.1 mm 0.24 in6.1 mm 0.16 in4.1 mm
11:59 AM 72.9°F22.7°C 66.4°F19.1°C 80% 6.0 mph NE9.7 kmh NE 8.9 mph14.3 kmh 29.91 in1012.9 mb 0.18 in4.6 mm 0.24 in6.1 mm 0.18 in4.6 mm
12:04 PM 73.0°F22.8°C 66.6°F19.2°C 80% 4.9 mph NE7.9 kmh NE 8.9 mph14.3 kmh 29.91 in1012.9 mb 0.17 in4.3 mm 0.00 in0.0 mm 0.18 in4.6 mm
12:09 PM 73.6°F23.1°C 67.1°F19.5°C 80% 4.9 mph NE7.9 kmh NE 10.1 mph16.3 kmh 29.91 in1012.9 mb 0.15 in3.8 mm 0.00 in0.0 mm 0.19 in4.8 mm
12:14 PM 73.8°F23.2°C 67.6°F19.8°C 81% 6.0 mph NE9.7 kmh NE 12.1 mph19.5 kmh 29.91 in1012.9 mb 0.14 in3.6 mm 0.00 in0.0 mm 0.20 in5.1 mm
12:19 PM 72.9°F22.7°C 66.7°F19.3°C 81% 6.9 mph N11.1 kmh N 11.0 mph17.7 kmh 29.91 in1012.9 mb 0.14 in3.6 mm 0.00 in0.0 mm 0.21 in5.3 mm
12:24 PM 72.9°F22.7°C 66.7°F19.3°C 81% 6.0 mph N9.7 kmh N 10.1 mph16.3 kmh 29.91 in1012.9 mb 0.14 in3.6 mm 0.00 in0.0 mm 0.22 in5.6 mm
12:29 PM 72.3°F22.4°C 65.8°F18.8°C 80% 4.9 mph NNE7.9 kmh NNE 8.1 mph13.0 kmh 29.91 in1012.9 mb 0.13 in3.3 mm 0.00 in0.0 mm 0.22 in5.6 mm
12:34 PM 72.3°F22.4°C 65.5°F18.6°C 79% 2.9 mph NW4.7 kmh NW 8.1 mph13.0 kmh 29.91 in1012.9 mb 0.13 in3.3 mm 0.00 in0.0 mm 0.23 in5.8 mm
12:39 PM 72.9°F22.7°C 66.0°F18.9°C 79% 2.9 mph N4.7 kmh N 4.9 mph7.9 kmh 29.90 in1012.5 mb 0.11 in2.8 mm 0.00 in0.0 mm 0.23 in5.8 mm
12:44 PM 72.9°F22.7°C 66.0°F18.9°C 79% 2.0 mph NW3.2 kmh NW 4.0 mph6.4 kmh 29.90 in1012.5 mb 0.11 in2.8 mm 0.00 in0.0 mm 0.24 in6.1 mm
12:49 PM 72.9°F22.7°C 66.0°F18.9°C 79% 2.0 mph NNW3.2 kmh NNW 4.9 mph7.9 kmh 29.90 in1012.5 mb 0.10 in2.5 mm 0.00 in0.0 mm 0.24 in6.1 mm
12:54 PM 72.9°F22.7°C 66.4°F19.1°C 80% 2.0 mph NNW3.2 kmh NNW 4.0 mph6.4 kmh 29.90 in1012.5 mb 0.08 in2.0 mm 0.00 in0.0 mm 0.24 in6.1 mm
12:59 PM 72.5°F22.5°C 65.7°F18.7°C 79% 2.0 mph NNW3.2 kmh NNW 4.9 mph7.9 kmh 29.90 in1012.5 mb 0.06 in1.5 mm 0.00 in0.0 mm 0.25 in6.4 mm
01:04 PM 72.3°F22.4°C 65.8°F18.8°C 80% 2.9 mph N4.7 kmh N 6.9 mph11.1 kmh 29.91 in1012.9 mb 0.07 in1.8 mm 0.01 in0.3 mm 0.25 in6.4 mm
01:09 PM 72.1°F22.3°C 65.7°F18.7°C 80% 2.9 mph NW4.7 kmh NW 6.9 mph11.1 kmh 29.91 in1012.9 mb 0.06 in1.5 mm 0.00 in0.0 mm 0.25 in6.4 mm
01:14 PM 72.1°F22.3°C 65.7°F18.7°C 80% 2.0 mph NW3.2 kmh NW 4.9 mph7.9 kmh 29.91 in1012.9 mb 0.05 in1.3 mm 0.00 in0.0 mm 0.25 in6.4 mm
01:19 PM 72.3°F22.4°C 65.8°F18.8°C 80% 2.0 mph W3.2 kmh W 6.0 mph9.7 kmh 29.90 in1012.5 mb 0.04 in1.0 mm 0.00 in0.0 mm 0.26 in6.6 mm
01:25 PM 72.3°F22.4°C 65.8°F18.8°C 80% 2.9 mph WNW4.7 kmh WNW 8.1 mph13.0 kmh 29.90 in1012.5 mb 0.04 in1.0 mm 0.00 in0.0 mm 0.26 in6.6 mm
01:30 PM 72.3°F22.4°C 65.8°F18.8°C 80% 2.9 mph WSW4.7 kmh WSW 6.9 mph11.1 kmh 29.90 in1012.5 mb 0.04 in1.0 mm 0.00 in0.0 mm 0.26 in6.6 mm
01:35 PM 72.5°F22.5°C 66.0°F18.9°C 80% 4.9 mph WNW7.9 kmh WNW 10.1 mph16.3 kmh 29.90 in1012.5 mb 0.03 in0.8 mm 0.00 in0.0 mm 0.26 in6.6 mm
01:40 PM 72.9°F22.7°C 66.4°F19.1°C 80% 4.9 mph WSW7.9 kmh WSW 8.9 mph14.3 kmh 29.90 in1012.5 mb 0.03 in0.8 mm 0.00 in0.0 mm 0.26 in6.6 mm
01:45 PM 73.0°F22.8°C 66.6°F19.2°C 80% 4.0 mph W6.4 kmh W 6.9 mph11.1 kmh 29.90 in1012.5 mb 0.02 in0.5 mm 0.00 in0.0 mm 0.26 in6.6 mm
01:50 PM 73.0°F22.8°C 66.2°F19.0°C 79% 4.0 mph WNW6.4 kmh WNW 8.9 mph14.3 kmh 29.90 in1012.5 mb 0.02 in0.5 mm 0.00 in0.0 mm 0.26 in6.6 mm
01:55 PM 73.2°F22.9°C 66.0°F18.9°C 78% 4.9 mph W7.9 kmh W 12.1 mph19.5 kmh 29.90 in1012.5 mb 0.02 in0.5 mm 0.00 in0.0 mm 0.26 in6.6 mm
02:00 PM 73.8°F23.2°C 66.4°F19.1°C 78% 4.9 mph W7.9 kmh W 11.0 mph17.7 kmh 29.89 in1012.2 mb 0.02 in0.5 mm 0.00 in0.0 mm 0.26 in6.6 mm
02:05 PM 74.1°F23.4°C 66.7°F19.3°C 78% 6.0 mph WNW9.7 kmh WNW 13.0 mph20.9 kmh 29.89 in1012.2 mb 0.01 in0.3 mm 0.00 in0.0 mm 0.26 in6.6 mm
02:10 PM 74.5°F23.6°C 67.1°F19.5°C 78% 6.0 mph WNW9.7 kmh WNW 13.0 mph20.9 kmh 29.89 in1012.2 mb 0.01 in0.3 mm 0.00 in0.0 mm 0.26 in6.6 mm
02:15 PM 74.1°F23.4°C 66.4°F19.1°C 77% 8.1 mph WNW13.0 kmh WNW 14.1 mph22.7 kmh 29.89 in1012.2 mb 0.01 in0.3 mm 0.00 in0.0 mm 0.26 in6.6 mm
02:20 PM 74.3°F23.5°C 66.2°F19.0°C 76% 8.1 mph WSW13.0 kmh WSW 15.0 mph24.1 kmh 29.89 in1012.2 mb 0.01 in0.3 mm 0.00 in0.0 mm 0.26 in6.6 mm
02:25 PM 74.8°F23.8°C 67.1°F19.5°C 77% 6.9 mph WNW11.1 kmh WNW 13.0 mph20.9 kmh 29.89 in1012.2 mb 0.00 in0.0 mm 0.00 in0.0 mm 0.26 in6.6 mm
02:30 PM 75.0°F23.9°C 66.9°F19.4°C 76% 6.9 mph WNW11.1 kmh WNW 13.0 mph20.9 kmh 29.89 in1012.2 mb 0.00 in0.0 mm 0.00 in0.0 mm 0.26 in6.6 mm
02:35 PM 75.4°F24.1°C 67.3°F19.6°C 76% 6.9 mph NW11.1 kmh NW 13.0 mph20.9 kmh 29.88 in1011.9 mb 0.00 in0.0 mm 0.00 in0.0 mm 0.26 in6.6 mm
02:40 PM 75.9°F24.4°C 67.8°F19.9°C 76% 4.9 mph W7.9 kmh W 12.1 mph19.5 kmh 29.88 in1011.9 mb 0.00 in0.0 mm 0.00 in0.0 mm 0.26 in6.6 mm
02:45 PM 75.9°F24.4°C 67.1°F19.5°C 74% 4.9 mph WNW7.9 kmh WNW 13.0 mph20.9 kmh 29.88 in1011.9 mb 0.00 in0.0 mm 0.00 in0.0 mm 0.26 in6.6 mm
02:50 PM 76.3°F24.6°C 67.5°F19.7°C 74% 6.9 mph W11.1 kmh W 13.0 mph20.9 kmh 29.88 in1011.9 mb 0.00 in0.0 mm 0.00 in0.0 mm 0.26 in6.6 mm
02:55 PM 76.8°F24.9°C 67.5°F19.7°C 73% 6.0 mph W9.7 kmh W 11.0 mph17.7 kmh 29.88 in1011.9 mb 0.00 in0.0 mm 0.00 in0.0 mm 0.26 in6.6 mm
03:00 PM 77.0°F25.0°C 67.3°F19.6°C 72% 6.0 mph WNW9.7 kmh WNW 11.0 mph17.7 kmh 29.88 in1011.9 mb 0.00 in0.0 mm 0.00 in0.0 mm 0.26 in6.6 mm
03:05 PM 77.4°F25.2°C 67.3°F19.6°C 71% 4.9 mph WNW7.9 kmh WNW 10.1 mph16.3 kmh 29.88 in1011.9 mb 0.00 in0.0 mm 0.00 in0.0 mm 0.26 in6.6 mm
03:10 PM 77.2°F25.1°C 66.6°F19.2°C 70% 4.0 mph WNW6.4 kmh WNW 8.9 mph14.3 kmh 29.88 in1011.9 mb 0.00 in0.0 mm 0.00 in0.0 mm 0.26 in6.6 mm
03:15 PM 77.0°F25.0°C 66.0°F18.9°C 69% 4.9 mph W7.9 kmh W 11.0 mph17.7 kmh 29.88 in1011.9 mb 0.00 in0.0 mm 0.00 in0.0 mm 0.26 in6.6 mm
03:20 PM 77.4°F25.2°C 66.4°F19.1°C 69% 4.9 mph WSW7.9 kmh WSW 8.9 mph14.3 kmh 29.88 in1011.9 mb 0.00 in0.0 mm 0.00 in0.0 mm 0.26 in6.6 mm
03:25 PM 77.5°F25.3°C 66.2°F19.0°C 68% 4.9 mph NNW7.9 kmh NNW 8.1 mph13.0 kmh 29.88 in1011.9 mb 0.00 in0.0 mm 0.00 in0.0 mm 0.26 in6.6 mm
03:30 PM 77.7°F25.4°C 66.4°F19.1°C 68% 4.0 mph W6.4 kmh W 6.9 mph11.1 kmh 29.88 in1011.9 mb 0.00 in0.0 mm 0.00 in0.0 mm 0.26 in6.6 mm
03:35 PM 78.3°F25.7°C 66.7°F19.3°C 68% 2.9 mph WSW4.7 kmh WSW 6.9 mph11.1 kmh 29.88 in1011.9 mb 0.00 in0.0 mm 0.00 in0.0 mm 0.26 in6.6 mm
03:40 PM 78.4°F25.8°C 66.6°F19.2°C 67% 2.9 mph WNW4.7 kmh WNW 6.0 mph9.7 kmh 29.88 in1011.9 mb 0.00 in0.0 mm 0.00 in0.0 mm 0.26 in6.6 mm
03:45 PM 78.6°F25.9°C 66.7°F19.3°C 67% 2.9 mph NW4.7 kmh NW 4.0 mph6.4 kmh 29.88 in1011.9 mb 0.00 in0.0 mm 0.00 in0.0 mm 0.26 in6.6 mm
03:50 PM 79.2°F26.2°C 67.3°F19.6°C 67% 2.0 mph WNW3.2 kmh WNW 6.0 mph9.7 kmh 29.88 in1011.9 mb 0.00 in0.0 mm 0.00 in0.0 mm 0.26 in6.6 mm
03:55 PM 79.2°F26.2°C 67.3°F19.6°C 67% 2.9 mph NNW4.7 kmh NNW 8.1 mph13.0 kmh 29.88 in1011.9 mb 0.00 in0.0 mm 0.00 in0.0 mm 0.26 in6.6 mm
04:00 PM 79.3°F26.3°C 67.5°F19.7°C 67% 2.9 mph N4.7 kmh N 6.0 mph9.7 kmh 29.88 in1011.9 mb 0.00 in0.0 mm 0.00 in0.0 mm 0.26 in6.6 mm
04:05 PM 79.3°F26.3°C 67.5°F19.7°C 67% 2.9 mph N4.7 kmh N 9.0 mph14.5 kmh 29.88 in1011.9 mb 0.00 in0.0 mm 0.00 in0.0 mm 0.26 in6.6 mm
04:10 PM 79.3°F26.3°C 66.9°F19.4°C 66% 2.9 mph N4.7 kmh N 9.0 mph14.5 kmh 29.88 in1011.9 mb 0.00 in0.0 mm 0.00 in0.0 mm 0.26 in6.6 mm
04:15 PM 79.3°F26.3°C 66.9°F19.4°C 66% 4.0 mph N6.4 kmh N 8.1 mph13.0 kmh 29.88 in1011.9 mb 0.00 in0.0 mm 0.00 in0.0 mm 0.26 in6.6 mm
04:20 PM 79.5°F26.4°C 67.1°F19.5°C 66% 2.9 mph NNE4.7 kmh NNE 6.0 mph9.7 kmh 29.88 in1011.9 mb 0.00 in0.0 mm 0.00 in0.0 mm 0.26 in6.6 mm
04:25 PM 79.9°F26.6°C 67.1°F19.5°C 65% 4.0 mph N6.4 kmh N 8.1 mph13.0 kmh 29.87 in1011.5 mb 0.00 in0.0 mm 0.00 in0.0 mm 0.26 in6.6 mm
04:30 PM 79.9°F26.6°C 67.1°F19.5°C 65% 4.0 mph NNW6.4 kmh NNW 10.1 mph16.3 kmh 29.87 in1011.5 mb 0.00 in0.0 mm 0.00 in0.0 mm 0.26 in6.6 mm
04:35 PM 80.1°F26.7°C 66.4°F19.1°C 63% 4.0 mph NNE6.4 kmh NNE 8.9 mph14.3 kmh 29.87 in1011.5 mb 0.00 in0.0 mm 0.00 in0.0 mm 0.26 in6.6 mm
04:40 PM 80.1°F26.7°C 65.8°F18.8°C 62% 4.9 mph N7.9 kmh N 11.0 mph17.7 kmh 29.87 in1011.5 mb 0.00 in0.0 mm 0.00 in0.0 mm 0.26 in6.6 mm
04:45 PM 80.4°F26.9°C 66.7°F19.3°C 63% 4.0 mph N6.4 kmh N 4.9 mph7.9 kmh 29.87 in1011.5 mb 0.00 in0.0 mm 0.00 in0.0 mm 0.26 in6.6 mm
04:50 PM 80.4°F26.9°C 66.2°F19.0°C 62% 4.0 mph N6.4 kmh N 8.9 mph14.3 kmh 29.87 in1011.5 mb 0.00 in0.0 mm 0.00 in0.0 mm 0.26 in6.6 mm
04:55 PM 80.2°F26.8°C 66.0°F18.9°C 62% 6.0 mph N9.7 kmh N 11.0 mph17.7 kmh 29.87 in1011.5 mb 0.00 in0.0 mm 0.00 in0.0 mm 0.26 in6.6 mm
05:00 PM 80.4°F26.9°C 66.2°F19.0°C 62% 4.9 mph NNE7.9 kmh NNE 8.1 mph13.0 kmh 29.87 in1011.5 mb 0.00 in0.0 mm 0.00 in0.0 mm 0.26 in6.6 mm
05:05 PM 80.2°F26.8°C 66.0°F18.9°C 62% 4.9 mph NE7.9 kmh NE 10.1 mph16.3 kmh 29.87 in1011.5 mb 0.00 in0.0 mm 0.00 in0.0 mm 0.26 in6.6 mm
05:10 PM 80.1°F26.7°C 66.4°F19.1°C 63% 6.0 mph N9.7 kmh N 8.9 mph14.3 kmh 29.87 in1011.5 mb 0.00 in0.0 mm 0.00 in0.0 mm 0.26 in6.6 mm
05:15 PM 80.2°F26.8°C 66.0°F18.9°C 62% 4.9 mph 7.9 kmh 12.1 mph19.5 kmh 29.87 in1011.5 mb 0.00 in0.0 mm 0.00 in0.0 mm 0.26 in6.6 mm
05:20 PM 80.2°F26.8°C 66.0°F18.9°C 62% 4.9 mph N7.9 kmh N 10.1 mph16.3 kmh 29.87 in1011.5 mb 0.00 in0.0 mm 0.00 in0.0 mm 0.26 in6.6 mm
05:25 PM 80.2°F26.8°C 65.5°F18.6°C 61% 4.9 mph NNW7.9 kmh NNW 10.1 mph16.3 kmh 29.87 in1011.5 mb 0.00 in0.0 mm 0.00 in0.0 mm 0.26 in6.6 mm
05:30 PM 80.1°F26.7°C 65.5°F18.6°C 61% 4.9 mph N7.9 kmh N 10.1 mph16.3 kmh 29.87 in1011.5 mb 0.00 in0.0 mm 0.00 in0.0 mm 0.26 in6.6 mm
05:35 PM 79.9°F26.6°C 65.3°F18.5°C 61% 4.9 mph NNW7.9 kmh NNW 8.9 mph14.3 kmh 29.87 in1011.5 mb 0.00 in0.0 mm 0.00 in0.0 mm 0.26 in6.6 mm
05:40 PM 79.7°F26.5°C 65.5°F18.6°C 62% 4.0 mph N6.4 kmh N 8.9 mph14.3 kmh 29.87 in1011.5 mb 0.00 in0.0 mm 0.00 in0.0 mm 0.26 in6.6 mm
05:45 PM 79.7°F26.5°C 65.5°F18.6°C 62% 4.0 mph N6.4 kmh N 8.1 mph13.0 kmh 29.88 in1011.9 mb 0.00 in0.0 mm 0.00 in0.0 mm 0.26 in6.6 mm
05:50 PM 79.7°F26.5°C 65.5°F18.6°C 62% 2.9 mph WNW4.7 kmh WNW 4.9 mph7.9 kmh 29.88 in1011.9 mb 0.00 in0.0 mm 0.00 in0.0 mm 0.26 in6.6 mm
05:55 PM 79.5°F26.4°C 65.3°F18.5°C 62% 2.9 mph N4.7 kmh N 4.9 mph7.9 kmh 29.88 in1011.9 mb 0.00 in0.0 mm 0.00 in0.0 mm 0.26 in6.6 mm
06:00 PM 79.5°F26.4°C 65.8°F18.8°C 63% 2.9 mph N4.7 kmh N 6.0 mph9.7 kmh 29.88 in1011.9 mb 0.00 in0.0 mm 0.00 in0.0 mm 0.26 in6.6 mm
06:05 PM 79.5°F26.4°C 65.8°F18.8°C 63% 2.9 mph N4.7 kmh N 6.0 mph9.7 kmh 29.88 in1011.9 mb 0.00 in0.0 mm 0.00 in0.0 mm 0.26 in6.6 mm
06:10 PM 79.5°F26.4°C 65.8°F18.8°C 63% 2.9 mph NW4.7 kmh NW 4.9 mph7.9 kmh 29.88 in1011.9 mb 0.00 in0.0 mm 0.00 in0.0 mm 0.26 in6.6 mm
06:15 PM 79.5°F26.4°C 65.8°F18.8°C 63% 2.9 mph WNW4.7 kmh WNW 6.0 mph9.7 kmh 29.88 in1011.9 mb 0.00 in0.0 mm 0.00 in0.0 mm 0.26 in6.6 mm
06:20 PM 79.5°F26.4°C 65.8°F18.8°C 63% 2.9 mph NW4.7 kmh NW 8.0 mph12.9 kmh 29.88 in1011.9 mb 0.00 in0.0 mm 0.00 in0.0 mm 0.26 in6.6 mm
06:25 PM 79.5°F26.4°C 65.8°F18.8°C 63% 2.9 mph N4.7 kmh N 6.9 mph11.1 kmh 29.88 in1011.9 mb 0.00 in0.0 mm 0.00 in0.0 mm 0.26 in6.6 mm
06:30 PM 79.3°F26.3°C 66.0°F18.9°C 64% 2.9 mph N4.7 kmh N 8.0 mph12.9 kmh 29.88 in1011.9 mb 0.00 in0.0 mm 0.00 in0.0 mm 0.26 in6.6 mm
06:35 PM 79.3°F26.3°C 66.0°F18.9°C 64% 4.0 mph NNW6.4 kmh NNW 10.1 mph16.3 kmh 29.88 in1011.9 mb 0.00 in0.0 mm 0.00 in0.0 mm 0.26 in6.6 mm
06:40 PM 79.3°F26.3°C 66.0°F18.9°C 64% 4.0 mph N6.4 kmh N 8.1 mph13.0 kmh 29.88 in1011.9 mb 0.00 in0.0 mm 0.00 in0.0 mm 0.26 in6.6 mm
06:45 PM 79.3°F26.3°C 66.0°F18.9°C 64% 4.0 mph NNW6.4 kmh NNW 11.0 mph17.7 kmh 29.88 in1011.9 mb 0.00 in0.0 mm 0.00 in0.0 mm 0.26 in6.6 mm
06:50 PM 79.2°F26.2°C 65.8°F18.8°C 64% 2.9 mph NNW4.7 kmh NNW 8.9 mph14.3 kmh 29.88 in1011.9 mb 0.00 in0.0 mm 0.00 in0.0 mm 0.26 in6.6 mm
06:55 PM 79.2°F26.2°C 65.8°F18.8°C 64% 4.0 mph NW6.4 kmh NW 8.9 mph14.3 kmh 29.88 in1011.9 mb 0.00 in0.0 mm 0.00 in0.0 mm 0.26 in6.6 mm
07:00 PM 79.0°F26.1°C 66.2°F19.0°C 65% 4.0 mph NW6.4 kmh NW 8.9 mph14.3 kmh 29.88 in1011.9 mb 0.00 in0.0 mm 0.00 in0.0 mm 0.26 in6.6 mm
07:05 PM 79.0°F26.1°C 66.2°F19.0°C 65% 4.0 mph WNW6.4 kmh WNW 8.1 mph13.0 kmh 29.88 in1011.9 mb 0.00 in0.0 mm 0.00 in0.0 mm 0.26 in6.6 mm
07:10 PM 79.0°F26.1°C 66.2°F19.0°C 65% 2.9 mph NW4.7 kmh NW 8.1 mph13.0 kmh 29.88 in1011.9 mb 0.00 in0.0 mm 0.00 in0.0 mm 0.26 in6.6 mm
07:15 PM 79.0°F26.1°C 66.2°F19.0°C 65% 4.0 mph NW6.4 kmh NW 8.1 mph13.0 kmh 29.88 in1011.9 mb 0.00 in0.0 mm 0.00 in0.0 mm 0.26 in6.6 mm
07:20 PM 78.8°F26.0°C 66.0°F18.9°C 65% 4.9 mph NW7.9 kmh NW 9.0 mph14.5 kmh 29.88 in1011.9 mb 0.00 in0.0 mm 0.00 in0.0 mm 0.26 in6.6 mm
07:25 PM 78.6°F25.9°C 65.8°F18.8°C 65% 4.0 mph N6.4 kmh N 8.9 mph14.3 kmh 29.88 in1011.9 mb 0.00 in0.0 mm 0.00 in0.0 mm 0.26 in6.6 mm
07:30 PM 78.6°F25.9°C 65.8°F18.8°C 65% 4.0 mph N6.4 kmh N 8.9 mph14.3 kmh 29.89 in1012.2 mb 0.00 in0.0 mm 0.00 in0.0 mm 0.26 in6.6 mm
07:35 PM 78.6°F25.9°C 66.4°F19.1°C 66% 2.9 mph WNW4.7 kmh WNW 6.0 mph9.7 kmh 29.89 in1012.2 mb 0.00 in0.0 mm 0.00 in0.0 mm 0.26 in6.6 mm
07:40 PM 78.4°F25.8°C 66.2°F19.0°C 66% 2.9 mph N4.7 kmh N 6.9 mph11.1 kmh 29.89 in1012.2 mb 0.00 in0.0 mm 0.00 in0.0 mm 0.26 in6.6 mm
07:45 PM 78.4°F25.8°C 66.2°F19.0°C 66% 4.0 mph NNW6.4 kmh NNW 9.0 mph14.5 kmh 29.89 in1012.2 mb 0.00 in0.0 mm 0.00 in0.0 mm 0.26 in6.6 mm
07:50 PM 78.4°F25.8°C 66.2°F19.0°C 66% 2.9 mph NW4.7 kmh NW 6.0 mph9.7 kmh 29.89 in1012.2 mb 0.00 in0.0 mm 0.00 in0.0 mm 0.26 in6.6 mm
07:55 PM 78.3°F25.7°C 66.0°F18.9°C 66% 2.9 mph NW4.7 kmh NW 6.9 mph11.1 kmh 29.90 in1012.5 mb 0.00 in0.0 mm 0.00 in0.0 mm 0.26 in6.6 mm
08:00 PM 78.3°F25.7°C 66.0°F18.9°C 66% 2.9 mph NW4.7 kmh NW 8.9 mph14.3 kmh 29.90 in1012.5 mb 0.00 in0.0 mm 0.00 in0.0 mm 0.26 in6.6 mm
08:05 PM 78.1°F25.6°C 65.8°F18.8°C 66% 2.9 mph NNW4.7 kmh NNW 8.1 mph13.0 kmh 29.90 in1012.5 mb 0.00 in0.0 mm 0.00 in0.0 mm 0.26 in6.6 mm
08:10 PM 78.1°F25.6°C 66.2°F19.0°C 67% 2.9 mph 4.7 kmh 8.1 mph13.0 kmh 29.90 in1012.5 mb 0.00 in0.0 mm 0.00 in0.0 mm 0.26 in6.6 mm
08:15 PM 77.9°F25.5°C 66.0°F18.9°C 67% 2.0 mph NW3.2 kmh NW 4.9 mph7.9 kmh 29.90 in1012.5 mb 0.00 in0.0 mm 0.00 in0.0 mm 0.26 in6.6 mm
08:20 PM 77.7°F25.4°C 65.8°F18.8°C 67% 2.9 mph NNE4.7 kmh NNE 6.9 mph11.1 kmh 29.90 in1012.5 mb 0.00 in0.0 mm 0.00 in0.0 mm 0.26 in6.6 mm
08:25 PM 77.7°F25.4°C 65.8°F18.8°C 67% 2.0 mph NW3.2 kmh NW 6.0 mph9.7 kmh 29.91 in1012.9 mb 0.00 in0.0 mm 0.00 in0.0 mm 0.26 in6.6 mm
08:30 PM 77.5°F25.3°C 65.7°F18.7°C 67% 2.0 mph NW3.2 kmh NW 8.1 mph13.0 kmh 29.91 in1012.9 mb 0.00 in0.0 mm 0.00 in0.0 mm 0.26 in6.6 mm
08:35 PM 77.5°F25.3°C 66.2°F19.0°C 68% 2.0 mph NNW3.2 kmh NNW 6.0 mph9.7 kmh 29.91 in1012.9 mb 0.00 in0.0 mm 0.00 in0.0 mm 0.26 in6.6 mm
08:40 PM 77.4°F25.2°C 66.0°F18.9°C 68% 2.0 mph W3.2 kmh W 6.9 mph11.1 kmh 29.91 in1012.9 mb 0.00 in0.0 mm 0.00 in0.0 mm 0.26 in6.6 mm
08:45 PM 77.4°F25.2°C 66.0°F18.9°C 68% 2.9 mph NW4.7 kmh NW 6.0 mph9.7 kmh 29.91 in1012.9 mb 0.00 in0.0 mm 0.00 in0.0 mm 0.26 in6.6 mm
08:50 PM 77.4°F25.2°C 65.5°F18.6°C 67% 2.9 mph WNW4.7 kmh WNW 6.9 mph11.1 kmh 29.91 in1012.9 mb 0.00 in0.0 mm 0.00 in0.0 mm 0.26 in6.6 mm
08:55 PM 77.4°F25.2°C 65.5°F18.6°C 67% 2.0 mph NW3.2 kmh NW 6.9 mph11.1 kmh 29.91 in1012.9 mb 0.00 in0.0 mm 0.00 in0.0 mm 0.26 in6.6 mm
09:00 PM 77.4°F25.2°C 65.5°F18.6°C 67% 2.9 mph WNW4.7 kmh WNW 6.9 mph11.1 kmh 29.91 in1012.9 mb 0.00 in0.0 mm 0.00 in0.0 mm 0.26 in6.6 mm
09:05 PM 77.4°F25.2°C 65.5°F18.6°C 67% 2.9 mph NNW4.7 kmh NNW 6.9 mph11.1 kmh 29.91 in1012.9 mb 0.00 in0.0 mm 0.00 in0.0 mm 0.26 in6.6 mm
09:10 PM 77.4°F25.2°C 65.5°F18.6°C 67% 2.9 mph WNW4.7 kmh WNW 8.1 mph13.0 kmh 29.91 in1012.9 mb 0.00 in0.0 mm 0.00 in0.0 mm 0.26 in6.6 mm
09:15 PM 77.4°F25.2°C 65.5°F18.6°C 67% 4.9 mph W7.9 kmh W 10.1 mph16.3 kmh 29.91 in1012.9 mb 0.00 in0.0 mm 0.00 in0.0 mm 0.26 in6.6 mm
09:20 PM 77.4°F25.2°C 65.5°F18.6°C 67% 6.0 mph W9.7 kmh W 8.9 mph14.3 kmh 29.91 in1012.9 mb 0.00 in0.0 mm 0.00 in0.0 mm 0.26 in6.6 mm
09:25 PM 77.2°F25.1°C 65.3°F18.5°C 67% 6.0 mph W9.7 kmh W 10.1 mph16.3 kmh 29.91 in1012.9 mb 0.00 in0.0 mm 0.00 in0.0 mm 0.26 in6.6 mm
09:30 PM 77.0°F25.0°C 65.1°F18.4°C 67% 6.0 mph NW9.7 kmh NW 11.0 mph17.7 kmh 29.91 in1012.9 mb 0.00 in0.0 mm 0.00 in0.0 mm 0.26 in6.6 mm
09:35 PM 76.8°F24.9°C 65.5°F18.6°C 68% 4.9 mph WNW7.9 kmh WNW 8.9 mph14.3 kmh 29.91 in1012.9 mb 0.00 in0.0 mm 0.00 in0.0 mm 0.26 in6.6 mm
09:40 PM 76.8°F24.9°C 65.5°F18.6°C 68% 4.9 mph W7.9 kmh W 11.0 mph17.7 kmh 29.91 in1012.9 mb 0.00 in0.0 mm 0.00 in0.0 mm 0.26 in6.6 mm
09:45 PM 76.6°F24.8°C 65.3°F18.5°C 68% 4.9 mph W7.9 kmh W 8.9 mph14.3 kmh 29.91 in1012.9 mb 0.00 in0.0 mm 0.00 in0.0 mm 0.26 in6.6 mm
09:50 PM 76.5°F24.7°C 65.5°F18.6°C 69% 4.9 mph WSW7.9 kmh WSW 13.0 mph20.9 kmh 29.91 in1012.9 mb 0.00 in0.0 mm 0.00 in0.0 mm 0.26 in6.6 mm
09:55 PM 76.5°F24.7°C 65.5°F18.6°C 69% 4.9 mph NW7.9 kmh NW 12.1 mph19.5 kmh 29.91 in1012.9 mb 0.00 in0.0 mm 0.00 in0.0 mm 0.26 in6.6 mm
10:00 PM 76.3°F24.6°C 65.3°F18.5°C 69% 4.9 mph WNW7.9 kmh WNW 11.0 mph17.7 kmh 29.91 in1012.9 mb 0.00 in0.0 mm 0.00 in0.0 mm 0.26 in6.6 mm
10:05 PM 76.3°F24.6°C 64.9°F18.3°C 68% 4.9 mph W7.9 kmh W 12.1 mph19.5 kmh 29.91 in1012.9 mb 0.00 in0.0 mm 0.00 in0.0 mm 0.26 in6.6 mm
10:10 PM 76.3°F24.6°C 64.9°F18.3°C 68% 6.0 mph WNW9.7 kmh WNW 12.1 mph19.5 kmh 29.91 in1012.9 mb 0.00 in0.0 mm 0.00 in0.0 mm 0.26 in6.6 mm
10:16 PM 76.3°F24.6°C 64.9°F18.3°C 68% 4.9 mph W7.9 kmh W 8.9 mph14.3 kmh 29.91 in1012.9 mb 0.00 in0.0 mm 0.00 in0.0 mm 0.26 in6.6 mm
10:21 PM 76.3°F24.6°C 64.9°F18.3°C 68% 6.0 mph WNW9.7 kmh WNW 10.1 mph16.3 kmh 29.91 in1012.9 mb 0.00 in0.0 mm 0.00 in0.0 mm 0.26 in6.6 mm
10:26 PM 76.3°F24.6°C 64.9°F18.3°C 68% 6.0 mph W9.7 kmh W 11.0 mph17.7 kmh 29.91 in1012.9 mb 0.00 in0.0 mm 0.00 in0.0 mm 0.26 in6.6 mm
10:31 PM 76.3°F24.6°C 64.9°F18.3°C 68% 4.9 mph W7.9 kmh W 12.1 mph19.5 kmh 29.91 in1012.9 mb 0.00 in0.0 mm 0.00 in0.0 mm 0.26 in6.6 mm
10:36 PM 76.3°F24.6°C 64.9°F18.3°C 68% 6.9 mph WNW11.1 kmh WNW 11.0 mph17.7 kmh 29.91 in1012.9 mb 0.00 in0.0 mm 0.00 in0.0 mm 0.26 in6.6 mm
10:41 PM 76.3°F24.6°C 64.9°F18.3°C 68% 6.0 mph WNW9.7 kmh WNW 11.0 mph17.7 kmh 29.91 in1012.9 mb 0.00 in0.0 mm 0.00 in0.0 mm 0.26 in6.6 mm
10:46 PM 76.3°F24.6°C 64.6°F18.1°C 67% 4.9 mph NNW7.9 kmh NNW 13.0 mph20.9 kmh 29.91 in1012.9 mb 0.00 in0.0 mm 0.00 in0.0 mm 0.26 in6.6 mm
10:51 PM 76.3°F24.6°C 64.6°F18.1°C 67% 4.9 mph WNW7.9 kmh WNW 11.0 mph17.7 kmh 29.91 in1012.9 mb 0.00 in0.0 mm 0.00 in0.0 mm 0.26 in6.6 mm
10:56 PM 76.3°F24.6°C 64.6°F18.1°C 67% 4.9 mph W7.9 kmh W 14.1 mph22.7 kmh 29.91 in1012.9 mb 0.00 in0.0 mm 0.00 in0.0 mm 0.26 in6.6 mm
11:01 PM 76.3°F24.6°C 64.0°F17.8°C 66% 4.9 mph WNW7.9 kmh WNW 8.9 mph14.3 kmh 29.91 in1012.9 mb 0.00 in0.0 mm 0.00 in0.0 mm 0.19 in4.8 mm
11:06 PM 76.3°F24.6°C 64.6°F18.1°C 67% 4.0 mph W6.4 kmh W 10.1 mph16.3 kmh 29.91 in1012.9 mb 0.00 in0.0 mm 0.00 in0.0 mm 0.19 in4.8 mm
11:11 PM 76.3°F24.6°C 64.0°F17.8°C 66% 4.9 mph WSW7.9 kmh WSW 12.1 mph19.5 kmh 29.91 in1012.9 mb 0.00 in0.0 mm 0.00 in0.0 mm 0.19 in4.8 mm
11:16 PM 76.3°F24.6°C 64.0°F17.8°C 66% 6.9 mph W11.1 kmh W 13.0 mph20.9 kmh 29.91 in1012.9 mb 0.00 in0.0 mm 0.00 in0.0 mm 0.19 in4.8 mm
11:21 PM 76.1°F24.5°C 63.9°F17.7°C 66% 6.9 mph W11.1 kmh W 11.0 mph17.7 kmh 29.91 in1012.9 mb 0.00 in0.0 mm 0.00 in0.0 mm 0.19 in4.8 mm
11:26 PM 76.1°F24.5°C 63.9°F17.7°C 66% 6.9 mph WNW11.1 kmh WNW 11.0 mph17.7 kmh 29.91 in1012.9 mb 0.00 in0.0 mm 0.00 in0.0 mm 0.19 in4.8 mm
11:31 PM 75.9°F24.4°C 63.7°F17.6°C 66% 6.0 mph WNW9.7 kmh WNW 10.1 mph16.3 kmh 29.91 in1012.9 mb 0.00 in0.0 mm 0.00 in0.0 mm 0.19 in4.8 mm
11:36 PM 75.9°F24.4°C 63.3°F17.4°C 65% 6.0 mph WNW9.7 kmh WNW 12.1 mph19.5 kmh 29.91 in1012.9 mb 0.00 in0.0 mm 0.00 in0.0 mm 0.19 in4.8 mm
11:41 PM 75.9°F24.4°C 63.3°F17.4°C 65% 6.0 mph SW9.7 kmh SW 12.1 mph19.5 kmh 29.91 in1012.9 mb 0.00 in0.0 mm 0.00 in0.0 mm 0.19 in4.8 mm
11:46 PM 75.9°F24.4°C 63.3°F17.4°C 65% 4.9 mph NW7.9 kmh NW 10.1 mph16.3 kmh 29.91 in1012.9 mb 0.00 in0.0 mm 0.00 in0.0 mm 0.19 in4.8 mm
11:51 PM 75.9°F24.4°C 63.3°F17.4°C 65% 4.0 mph NW6.4 kmh NW 10.1 mph16.3 kmh 29.91 in1012.9 mb 0.00 in0.0 mm 0.00 in0.0 mm 0.19 in4.8 mm
11:56 PM 76.1°F24.5°C 63.5°F17.5°C 65% 4.9 mph NW7.9 kmh NW 11.0 mph17.7 kmh 29.91 in1012.9 mb 0.00 in0.0 mm 0.00 in0.0 mm 0.19 in4.8 mm